METAR podaci zračne luke     LDPL Pula Airport
Temperatura
26°C Temperatura
17°C Točka rosišta
58% Vlaga



Vjetar
11 KM/H
7 MPH
3 M/S
6 KTS



40°
SI
Trenutna situacija

Vedro Vedro
Tlak zraka 1014.92 (hPa) - 29.97 (inHg)
Vidljivost 6.2 (milje) - 10 (km)
Zračna luka
Kôd zračne luke LDPL

Lokacija: Pula Airport
Udaljenost: 39 (km)

Metar:
LDPL 112030Z 04006KT CAVOK 26/17 Q1015 NOSIG

Vrijeme: 11-08-2020 22:30 CEST